sensor_id;sensor_type;location;lat;lon;timestamp;P1;durP1;ratioP1;P2;durP2;ratioP2
33862;SDS011;20158;51.436;-2.742;2022-08-19T00:00:35;0.60;;;0.20;;
33862;SDS011;20158;51.436;-2.742;2022-08-19T00:03:02;0.85;;;0.30;;
33862;SDS011;20158;51.436;-2.742;2022-08-19T00:05:29;1.10;;;0.30;;
33862;SDS011;20158;51.436;-2.742;2022-08-19T00:07:56;1.48;;;0.40;;
33862;SDS011;20158;51.436;-2.742;2022-08-19T00:10:23;1.13;;;0.30;;
33862;SDS011;20158;51.436;-2.742;2022-08-19T00:12:49;1.17;;;0.60;;
33862;SDS011;20158;51.436;-2.742;2022-08-19T00:15:18;1.80;;;0.50;;
33862;SDS011;20158;51.436;-2.742;2022-08-19T00:17:46;0.75;;;0.50;;
33862;SDS011;20158;51.436;-2.742;2022-08-19T00:20:13;1.40;;;0.60;;
33862;SDS011;20158;51.436;-2.742;2022-08-19T00:22:43;1.10;;;0.40;;
33862;SDS011;20158;51.436;-2.742;2022-08-19T00:25:10;1.20;;;0.60;;
33862;SDS011;20158;51.436;-2.742;2022-08-19T00:27:37;1.90;;;0.70;;
33862;SDS011;20158;51.436;-2.742;2022-08-19T00:30:04;1.42;;;0.43;;
33862;SDS011;20158;51.436;-2.742;2022-08-19T00:32:31;1.45;;;0.60;;
33862;SDS011;20158;51.436;-2.742;2022-08-19T00:34:58;1.05;;;0.55;;
33862;SDS011;20158;51.436;-2.742;2022-08-19T00:37:24;1.55;;;0.50;;
33862;SDS011;20158;51.436;-2.742;2022-08-19T00:39:52;1.75;;;0.43;;
33862;SDS011;20158;51.436;-2.742;2022-08-19T00:42:19;1.17;;;0.60;;
33862;SDS011;20158;51.436;-2.742;2022-08-19T00:44:45;2.38;;;0.70;;
33862;SDS011;20158;51.436;-2.742;2022-08-19T00:47:12;2.03;;;0.63;;
33862;SDS011;20158;51.436;-2.742;2022-08-19T00:49:45;1.60;;;0.70;;
33862;SDS011;20158;51.436;-2.742;2022-08-19T00:52:19;1.50;;;0.40;;
33862;SDS011;20158;51.436;-2.742;2022-08-19T00:54:49;1.60;;;0.63;;
33862;SDS011;20158;51.436;-2.742;2022-08-19T00:57:17;2.00;;;0.85;;
33862;SDS011;20158;51.436;-2.742;2022-08-19T00:59:47;2.38;;;0.93;;
33862;SDS011;20158;51.436;-2.742;2022-08-19T01:02:19;1.95;;;0.63;;
33862;SDS011;20158;51.436;-2.742;2022-08-19T01:04:45;1.50;;;0.68;;
33862;SDS011;20158;51.436;-2.742;2022-08-19T01:07:11;3.50;;;0.70;;
33862;SDS011;20158;51.436;-2.742;2022-08-19T01:09:38;2.95;;;0.60;;
33862;SDS011;20158;51.436;-2.742;2022-08-19T01:12:04;1.38;;;0.43;;
33862;SDS011;20158;51.436;-2.742;2022-08-19T01:14:31;1.33;;;0.40;;
33862;SDS011;20158;51.436;-2.742;2022-08-19T01:16:58;1.80;;;0.63;;
33862;SDS011;20158;51.436;-2.742;2022-08-19T01:24:33;1.92;;;0.40;;
33862;SDS011;20158;51.436;-2.742;2022-08-19T01:27:00;2.17;;;0.60;;
33862;SDS011;20158;51.436;-2.742;2022-08-19T01:29:30;1.13;;;0.60;;
33862;SDS011;20158;51.436;-2.742;2022-08-19T01:31:56;1.58;;;0.50;;
33862;SDS011;20158;51.436;-2.742;2022-08-19T01:34:22;1.73;;;0.70;;
33862;SDS011;20158;51.436;-2.742;2022-08-19T01:36:49;2.45;;;0.55;;
33862;SDS011;20158;51.436;-2.742;2022-08-19T01:39:17;2.55;;;0.80;;
33862;SDS011;20158;51.436;-2.742;2022-08-19T01:41:48;1.05;;;0.75;;
33862;SDS011;20158;51.436;-2.742;2022-08-19T01:44:15;2.45;;;0.75;;
33862;SDS011;20158;51.436;-2.742;2022-08-19T01:46:46;1.25;;;0.38;;
33862;SDS011;20158;51.436;-2.742;2022-08-19T01:49:13;1.40;;;0.50;;
33862;SDS011;20158;51.436;-2.742;2022-08-19T01:51:40;1.63;;;0.85;;
33862;SDS011;20158;51.436;-2.742;2022-08-19T01:54:07;1.45;;;0.43;;
33862;SDS011;20158;51.436;-2.742;2022-08-19T01:56:34;1.65;;;0.60;;
33862;SDS011;20158;51.436;-2.742;2022-08-19T01:59:03;2.40;;;0.50;;
33862;SDS011;20158;51.436;-2.742;2022-08-19T02:01:33;1.73;;;0.80;;
33862;SDS011;20158;51.436;-2.742;2022-08-19T02:03:59;2.72;;;0.82;;
33862;SDS011;20158;51.436;-2.742;2022-08-19T02:06:29;2.92;;;0.80;;
33862;SDS011;20158;51.436;-2.742;2022-08-19T02:08:55;1.00;;;0.60;;
33862;SDS011;20158;51.436;-2.742;2022-08-19T02:11:26;1.80;;;0.77;;
33862;SDS011;20158;51.436;-2.742;2022-08-19T02:13:54;2.67;;;0.52;;
33862;SDS011;20158;51.436;-2.742;2022-08-19T02:16:20;1.63;;;0.70;;
33862;SDS011;20158;51.436;-2.742;2022-08-19T02:18:47;1.55;;;0.40;;
33862;SDS011;20158;51.436;-2.742;2022-08-19T02:21:14;2.60;;;1.13;;
33862;SDS011;20158;51.436;-2.742;2022-08-19T02:23:44;2.05;;;0.75;;
33862;SDS011;20158;51.436;-2.742;2022-08-19T02:26:11;2.08;;;0.85;;
33862;SDS011;20158;51.436;-2.742;2022-08-19T02:28:37;2.72;;;0.73;;
33862;SDS011;20158;51.436;-2.742;2022-08-19T02:31:08;2.00;;;0.65;;
33862;SDS011;20158;51.436;-2.742;2022-08-19T02:33:36;2.28;;;0.68;;
33862;SDS011;20158;51.436;-2.742;2022-08-19T02:36:03;1.38;;;0.45;;
33862;SDS011;20158;51.436;-2.742;2022-08-19T02:38:30;1.27;;;0.65;;
33862;SDS011;20158;51.436;-2.742;2022-08-19T02:40:58;1.20;;;0.60;;
33862;SDS011;20158;51.436;-2.742;2022-08-19T02:43:27;1.35;;;0.60;;
33862;SDS011;20158;51.436;-2.742;2022-08-19T02:45:54;2.28;;;0.60;;
33862;SDS011;20158;51.436;-2.742;2022-08-19T02:48:21;3.50;;;1.02;;
33862;SDS011;20158;51.436;-2.742;2022-08-19T02:50:49;3.70;;;0.90;;
33862;SDS011;20158;51.436;-2.742;2022-08-19T02:53:21;1.67;;;0.80;;
33862;SDS011;20158;51.436;-2.742;2022-08-19T02:55:49;2.30;;;0.85;;
33862;SDS011;20158;51.436;-2.742;2022-08-19T02:58:18;3.85;;;1.15;;
33862;SDS011;20158;51.436;-2.742;2022-08-19T03:00:46;2.17;;;0.77;;
33862;SDS011;20158;51.436;-2.742;2022-08-19T03:03:18;6.50;;;1.45;;
33862;SDS011;20158;51.436;-2.742;2022-08-19T03:05:44;3.28;;;0.88;;
33862;SDS011;20158;51.436;-2.742;2022-08-19T03:08:11;3.17;;;1.27;;
33862;SDS011;20158;51.436;-2.742;2022-08-19T03:10:41;4.32;;;1.63;;
33862;SDS011;20158;51.436;-2.742;2022-08-19T03:13:10;4.22;;;1.17;;
33862;SDS011;20158;51.436;-2.742;2022-08-19T03:15:44;3.90;;;0.80;;
33862;SDS011;20158;51.436;-2.742;2022-08-19T03:18:11;3.65;;;0.73;;
33862;SDS011;20158;51.436;-2.742;2022-08-19T03:20:40;2.00;;;0.93;;
33862;SDS011;20158;51.436;-2.742;2022-08-19T03:23:11;3.50;;;1.33;;
33862;SDS011;20158;51.436;-2.742;2022-08-19T03:25:41;2.60;;;1.25;;
33862;SDS011;20158;51.436;-2.742;2022-08-19T03:28:10;3.83;;;1.65;;
33862;SDS011;20158;51.436;-2.742;2022-08-19T03:30:38;3.83;;;1.23;;
33862;SDS011;20158;51.436;-2.742;2022-08-19T03:33:06;1.52;;;0.73;;
33862;SDS011;20158;51.436;-2.742;2022-08-19T03:35:33;4.75;;;1.10;;
33862;SDS011;20158;51.436;-2.742;2022-08-19T03:38:05;1.60;;;0.85;;
33862;SDS011;20158;51.436;-2.742;2022-08-19T03:40:32;2.47;;;1.08;;
33862;SDS011;20158;51.436;-2.742;2022-08-19T03:43:00;3.65;;;1.08;;
33862;SDS011;20158;51.436;-2.742;2022-08-19T03:45:26;3.67;;;1.75;;
33862;SDS011;20158;51.436;-2.742;2022-08-19T03:47:52;4.40;;;1.30;;
33862;SDS011;20158;51.436;-2.742;2022-08-19T03:50:19;3.50;;;1.10;;
33862;SDS011;20158;51.436;-2.742;2022-08-19T03:52:48;5.18;;;1.40;;
33862;SDS011;20158;51.436;-2.742;2022-08-19T03:55:16;3.40;;;1.13;;
33862;SDS011;20158;51.436;-2.742;2022-08-19T03:57:43;5.03;;;1.73;;
33862;SDS011;20158;51.436;-2.742;2022-08-19T04:00:10;5.03;;;1.35;;
33862;SDS011;20158;51.436;-2.742;2022-08-19T04:02:37;3.08;;;1.15;;
33862;SDS011;20158;51.436;-2.742;2022-08-19T04:05:03;4.97;;;2.10;;
33862;SDS011;20158;51.436;-2.742;2022-08-19T04:07:30;2.97;;;1.52;;
33862;SDS011;20158;51.436;-2.742;2022-08-19T04:09:56;3.08;;;1.13;;
33862;SDS011;20158;51.436;-2.742;2022-08-19T04:12:24;3.95;;;1.40;;
33862;SDS011;20158;51.436;-2.742;2022-08-19T04:14:50;4.35;;;1.65;;
33862;SDS011;20158;51.436;-2.742;2022-08-19T04:17:16;5.15;;;1.85;;
33862;SDS011;20158;51.436;-2.742;2022-08-19T04:19:42;5.22;;;2.58;;
33862;SDS011;20158;51.436;-2.742;2022-08-19T04:22:08;5.05;;;2.08;;
33862;SDS011;20158;51.436;-2.742;2022-08-19T04:24:34;4.18;;;1.92;;
33862;SDS011;20158;51.436;-2.742;2022-08-19T04:27:01;4.57;;;2.28;;
33862;SDS011;20158;51.436;-2.742;2022-08-19T04:29:29;4.20;;;1.42;;
33862;SDS011;20158;51.436;-2.742;2022-08-19T04:31:55;6.70;;;3.00;;
33862;SDS011;20158;51.436;-2.742;2022-08-19T04:34:23;7.40;;;2.10;;
33862;SDS011;20158;51.436;-2.742;2022-08-19T04:36:52;7.22;;;2.33;;
33862;SDS011;20158;51.436;-2.742;2022-08-19T04:39:24;5.30;;;1.67;;
33862;SDS011;20158;51.436;-2.742;2022-08-19T04:42:14;5.95;;;2.17;;
33862;SDS011;20158;51.436;-2.742;2022-08-19T04:44:59;7.22;;;1.80;;
33862;SDS011;20158;51.436;-2.742;2022-08-19T04:47:26;5.38;;;2.03;;
33862;SDS011;20158;51.436;-2.742;2022-08-19T04:49:52;5.57;;;1.98;;
33862;SDS011;20158;51.436;-2.742;2022-08-19T04:52:19;3.95;;;1.80;;
33862;SDS011;20158;51.436;-2.742;2022-08-19T04:54:45;6.47;;;2.00;;
33862;SDS011;20158;51.436;-2.742;2022-08-19T04:57:11;5.43;;;2.03;;
33862;SDS011;20158;51.436;-2.742;2022-08-19T04:59:38;8.68;;;2.45;;
33862;SDS011;20158;51.436;-2.742;2022-08-19T05:02:06;7.45;;;2.17;;
33862;SDS011;20158;51.436;-2.742;2022-08-19T05:04:34;6.63;;;2.55;;
33862;SDS011;20158;51.436;-2.742;2022-08-19T05:07:07;6.43;;;2.75;;
33862;SDS011;20158;51.436;-2.742;2022-08-19T05:09:33;5.50;;;2.00;;
33862;SDS011;20158;51.436;-2.742;2022-08-19T05:11:59;8.85;;;2.83;;
33862;SDS011;20158;51.436;-2.742;2022-08-19T05:14:25;6.88;;;2.45;;
33862;SDS011;20158;51.436;-2.742;2022-08-19T05:16:51;3.88;;;2.08;;
33862;SDS011;20158;51.436;-2.742;2022-08-19T05:19:17;7.25;;;2.65;;
33862;SDS011;20158;51.436;-2.742;2022-08-19T05:22:02;3.92;;;2.17;;
33862;SDS011;20158;51.436;-2.742;2022-08-19T05:24:46;6.57;;;2.13;;
33862;SDS011;20158;51.436;-2.742;2022-08-19T05:27:12;4.38;;;2.15;;
33862;SDS011;20158;51.436;-2.742;2022-08-19T05:29:38;6.10;;;2.03;;
33862;SDS011;20158;51.436;-2.742;2022-08-19T05:32:05;5.20;;;1.73;;
33862;SDS011;20158;51.436;-2.742;2022-08-19T05:34:36;4.45;;;2.15;;
33862;SDS011;20158;51.436;-2.742;2022-08-19T05:37:03;5.25;;;2.22;;
33862;SDS011;20158;51.436;-2.742;2022-08-19T05:39:31;6.72;;;2.40;;
33862;SDS011;20158;51.436;-2.742;2022-08-19T05:41:59;5.28;;;2.80;;
33862;SDS011;20158;51.436;-2.742;2022-08-19T05:44:28;4.82;;;2.50;;
33862;SDS011;20158;51.436;-2.742;2022-08-19T05:46:56;3.72;;;2.15;;
33862;SDS011;20158;51.436;-2.742;2022-08-19T05:49:25;6.75;;;2.58;;
33862;SDS011;20158;51.436;-2.742;2022-08-19T05:51:52;5.88;;;2.40;;
33862;SDS011;20158;51.436;-2.742;2022-08-19T05:54:20;10.07;;;4.00;;
33862;SDS011;20158;51.436;-2.742;2022-08-19T05:56:49;4.70;;;2.05;;
33862;SDS011;20158;51.436;-2.742;2022-08-19T05:59:16;5.20;;;2.72;;
33862;SDS011;20158;51.436;-2.742;2022-08-19T06:01:44;4.20;;;2.13;;
33862;SDS011;20158;51.436;-2.742;2022-08-19T06:04:12;10.05;;;4.10;;
33862;SDS011;20158;51.436;-2.742;2022-08-19T06:06:39;6.05;;;2.22;;
33862;SDS011;20158;51.436;-2.742;2022-08-19T06:09:06;5.70;;;2.85;;
33862;SDS011;20158;51.436;-2.742;2022-08-19T06:11:35;11.57;;;4.05;;
33862;SDS011;20158;51.436;-2.742;2022-08-19T06:14:05;8.32;;;3.78;;
33862;SDS011;20158;51.436;-2.742;2022-08-19T06:16:35;6.07;;;3.22;;
33862;SDS011;20158;51.436;-2.742;2022-08-19T06:19:04;5.80;;;1.90;;
33862;SDS011;20158;51.436;-2.742;2022-08-19T06:21:33;4.47;;;2.08;;
33862;SDS011;20158;51.436;-2.742;2022-08-19T06:24:02;8.80;;;3.08;;
33862;SDS011;20158;51.436;-2.742;2022-08-19T06:26:30;6.97;;;2.60;;
33862;SDS011;20158;51.436;-2.742;2022-08-19T06:28:56;7.93;;;2.88;;
33862;SDS011;20158;51.436;-2.742;2022-08-19T06:31:25;8.68;;;2.92;;
33862;SDS011;20158;51.436;-2.742;2022-08-19T06:33:56;4.70;;;1.55;;
33862;SDS011;20158;51.436;-2.742;2022-08-19T06:36:23;6.18;;;2.08;;
33862;SDS011;20158;51.436;-2.742;2022-08-19T06:39:10;7.57;;;2.38;;
33862;SDS011;20158;51.436;-2.742;2022-08-19T06:41:39;8.43;;;2.40;;
33862;SDS011;20158;51.436;-2.742;2022-08-19T06:44:15;9.07;;;3.22;;
33862;SDS011;20158;51.436;-2.742;2022-08-19T06:46:42;4.75;;;1.92;;
33862;SDS011;20158;51.436;-2.742;2022-08-19T06:49:08;7.75;;;2.50;;
33862;SDS011;20158;51.436;-2.742;2022-08-19T06:51:39;4.55;;;1.95;;
33862;SDS011;20158;51.436;-2.742;2022-08-19T06:54:10;4.90;;;2.00;;
33862;SDS011;20158;51.436;-2.742;2022-08-19T06:56:36;5.57;;;2.45;;
33862;SDS011;20158;51.436;-2.742;2022-08-19T06:59:08;3.50;;;1.30;;
33862;SDS011;20158;51.436;-2.742;2022-08-19T07:01:41;4.03;;;1.50;;
33862;SDS011;20158;51.436;-2.742;2022-08-19T07:04:11;5.30;;;1.85;;
33862;SDS011;20158;51.436;-2.742;2022-08-19T07:06:37;2.92;;;1.35;;
33862;SDS011;20158;51.436;-2.742;2022-08-19T07:09:07;6.65;;;1.88;;
33862;SDS011;20158;51.436;-2.742;2022-08-19T07:11:34;3.92;;;1.48;;
33862;SDS011;20158;51.436;-2.742;2022-08-19T07:14:01;5.57;;;1.52;;
33862;SDS011;20158;51.436;-2.742;2022-08-19T07:16:27;9.05;;;3.17;;
33862;SDS011;20158;51.436;-2.742;2022-08-19T07:18:54;5.32;;;2.00;;
33862;SDS011;20158;51.436;-2.742;2022-08-19T07:21:23;6.32;;;1.80;;
33862;SDS011;20158;51.436;-2.742;2022-08-19T07:23:53;5.82;;;2.28;;
33862;SDS011;20158;51.436;-2.742;2022-08-19T07:26:23;3.45;;;1.42;;
33862;SDS011;20158;51.436;-2.742;2022-08-19T07:28:50;4.95;;;1.73;;
33862;SDS011;20158;51.436;-2.742;2022-08-19T07:31:18;3.53;;;1.60;;
33862;SDS011;20158;51.436;-2.742;2022-08-19T07:33:46;4.65;;;1.27;;
33862;SDS011;20158;51.436;-2.742;2022-08-19T07:36:15;4.50;;;1.38;;
33862;SDS011;20158;51.436;-2.742;2022-08-19T07:38:45;6.38;;;2.65;;
33862;SDS011;20158;51.436;-2.742;2022-08-19T07:41:15;3.17;;;1.20;;
33862;SDS011;20158;51.436;-2.742;2022-08-19T07:43:43;2.70;;;1.20;;
33862;SDS011;20158;51.436;-2.742;2022-08-19T07:46:11;3.58;;;1.42;;
33862;SDS011;20158;51.436;-2.742;2022-08-19T07:48:38;4.07;;;1.73;;
33862;SDS011;20158;51.436;-2.742;2022-08-19T07:51:06;6.82;;;2.00;;
33862;SDS011;20158;51.436;-2.742;2022-08-19T07:53:34;4.13;;;1.60;;
33862;SDS011;20158;51.436;-2.742;2022-08-19T07:56:01;4.43;;;1.77;;
33862;SDS011;20158;51.436;-2.742;2022-08-19T07:58:32;4.40;;;1.63;;
33862;SDS011;20158;51.436;-2.742;2022-08-19T08:01:02;5.07;;;1.40;;
33862;SDS011;20158;51.436;-2.742;2022-08-19T08:03:30;3.95;;;1.77;;
33862;SDS011;20158;51.436;-2.742;2022-08-19T08:06:16;4.22;;;1.30;;
33862;SDS011;20158;51.436;-2.742;2022-08-19T08:09:01;4.30;;;1.35;;
33862;SDS011;20158;51.436;-2.742;2022-08-19T08:11:39;5.00;;;1.40;;
33862;SDS011;20158;51.436;-2.742;2022-08-19T08:14:22;4.57;;;1.10;;
33862;SDS011;20158;51.436;-2.742;2022-08-19T08:16:51;2.70;;;1.50;;
33862;SDS011;20158;51.436;-2.742;2022-08-19T08:19:18;3.92;;;1.65;;
33862;SDS011;20158;51.436;-2.742;2022-08-19T08:21:46;3.70;;;1.70;;
33862;SDS011;20158;51.436;-2.742;2022-08-19T08:24:13;5.10;;;1.10;;
33862;SDS011;20158;51.436;-2.742;2022-08-19T08:26:40;5.40;;;1.70;;
33862;SDS011;20158;51.436;-2.742;2022-08-19T08:29:06;3.60;;;1.20;;
33862;SDS011;20158;51.436;-2.742;2022-08-19T08:31:36;4.82;;;1.75;;
33862;SDS011;20158;51.436;-2.742;2022-08-19T08:34:03;5.63;;;1.77;;
33862;SDS011;20158;51.436;-2.742;2022-08-19T08:36:29;7.57;;;2.53;;
33862;SDS011;20158;51.436;-2.742;2022-08-19T08:38:59;6.28;;;2.00;;
33862;SDS011;20158;51.436;-2.742;2022-08-19T08:41:44;7.45;;;1.80;;
33862;SDS011;20158;51.436;-2.742;2022-08-19T08:44:28;4.07;;;1.48;;
33862;SDS011;20158;51.436;-2.742;2022-08-19T08:47:03;2.72;;;1.40;;
33862;SDS011;20158;51.436;-2.742;2022-08-19T08:52:15;6.05;;;1.90;;
33862;SDS011;20158;51.436;-2.742;2022-08-19T08:54:55;7.70;;;2.28;;
33862;SDS011;20158;51.436;-2.742;2022-08-19T08:57:59;4.95;;;1.33;;
33862;SDS011;20158;51.436;-2.742;2022-08-19T09:00:40;6.60;;;2.20;;
33862;SDS011;20158;51.436;-2.742;2022-08-19T09:03:28;4.70;;;1.92;;
33862;SDS011;20158;51.436;-2.742;2022-08-19T09:06:02;3.33;;;1.65;;
33862;SDS011;20158;51.436;-2.742;2022-08-19T09:11:47;5.70;;;1.30;;
33862;SDS011;20158;51.436;-2.742;2022-08-19T09:16:59;3.63;;;1.67;;
33862;SDS011;20158;51.436;-2.742;2022-08-19T09:19:29;6.43;;;1.98;;
33862;SDS011;20158;51.436;-2.742;2022-08-19T09:21:55;5.13;;;1.73;;
33862;SDS011;20158;51.436;-2.742;2022-08-19T09:24:21;5.88;;;1.73;;
33862;SDS011;20158;51.436;-2.742;2022-08-19T09:26:47;4.78;;;1.27;;
33862;SDS011;20158;51.436;-2.742;2022-08-19T09:29:13;4.82;;;1.80;;
33862;SDS011;20158;51.436;-2.742;2022-08-19T09:31:39;3.90;;;1.65;;
33862;SDS011;20158;51.436;-2.742;2022-08-19T09:34:06;6.20;;;2.05;;
33862;SDS011;20158;51.436;-2.742;2022-08-19T09:36:31;4.18;;;1.65;;
33862;SDS011;20158;51.436;-2.742;2022-08-19T09:38:59;4.63;;;1.25;;
33862;SDS011;20158;51.436;-2.742;2022-08-19T09:41:27;4.47;;;1.85;;
33862;SDS011;20158;51.436;-2.742;2022-08-19T09:43:54;4.80;;;2.20;;
33862;SDS011;20158;51.436;-2.742;2022-08-19T09:46:23;4.80;;;1.85;;
33862;SDS011;20158;51.436;-2.742;2022-08-19T09:48:51;5.53;;;1.83;;
33862;SDS011;20158;51.436;-2.742;2022-08-19T09:51:21;4.05;;;1.52;;
33862;SDS011;20158;51.436;-2.742;2022-08-19T09:53:49;4.88;;;1.40;;
33862;SDS011;20158;51.436;-2.742;2022-08-19T09:56:19;4.90;;;2.05;;
33862;SDS011;20158;51.436;-2.742;2022-08-19T09:58:47;5.50;;;1.95;;
33862;SDS011;20158;51.436;-2.742;2022-08-19T10:01:21;4.82;;;1.63;;
33862;SDS011;20158;51.436;-2.742;2022-08-19T10:03:49;4.88;;;1.65;;
33862;SDS011;20158;51.436;-2.742;2022-08-19T10:06:20;5.30;;;1.70;;
33862;SDS011;20158;51.436;-2.742;2022-08-19T10:08:52;5.68;;;1.90;;
33862;SDS011;20158;51.436;-2.742;2022-08-19T10:11:19;6.45;;;2.13;;
33862;SDS011;20158;51.436;-2.742;2022-08-19T10:13:46;5.53;;;2.10;;
33862;SDS011;20158;51.436;-2.742;2022-08-19T10:16:13;3.90;;;1.60;;
33862;SDS011;20158;51.436;-2.742;2022-08-19T10:18:43;3.97;;;1.88;;
33862;SDS011;20158;51.436;-2.742;2022-08-19T10:21:12;5.90;;;1.75;;
33862;SDS011;20158;51.436;-2.742;2022-08-19T10:23:41;4.63;;;1.40;;
33862;SDS011;20158;51.436;-2.742;2022-08-19T10:26:14;6.55;;;1.90;;
33862;SDS011;20158;51.436;-2.742;2022-08-19T10:28:42;6.38;;;2.20;;
33862;SDS011;20158;51.436;-2.742;2022-08-19T10:31:10;5.68;;;1.55;;
33862;SDS011;20158;51.436;-2.742;2022-08-19T10:33:42;4.93;;;1.52;;
33862;SDS011;20158;51.436;-2.742;2022-08-19T10:36:12;3.92;;;1.55;;
33862;SDS011;20158;51.436;-2.742;2022-08-19T10:38:43;3.45;;;1.60;;
33862;SDS011;20158;51.436;-2.742;2022-08-19T10:41:11;6.32;;;1.70;;
33862;SDS011;20158;51.436;-2.742;2022-08-19T10:43:40;5.13;;;2.00;;
33862;SDS011;20158;51.436;-2.742;2022-08-19T10:46:08;5.88;;;1.67;;
33862;SDS011;20158;51.436;-2.742;2022-08-19T10:48:35;5.72;;;1.40;;
33862;SDS011;20158;51.436;-2.742;2022-08-19T10:51:02;9.00;;;1.90;;
33862;SDS011;20158;51.436;-2.742;2022-08-19T10:53:47;8.82;;;2.55;;
33862;SDS011;20158;51.436;-2.742;2022-08-19T10:56:13;6.95;;;2.03;;
33862;SDS011;20158;51.436;-2.742;2022-08-19T10:58:58;4.30;;;1.63;;
33862;SDS011;20158;51.436;-2.742;2022-08-19T11:01:25;7.45;;;2.42;;
33862;SDS011;20158;51.436;-2.742;2022-08-19T11:03:52;5.90;;;1.95;;
33862;SDS011;20158;51.436;-2.742;2022-08-19T11:06:18;7.50;;;1.70;;
33862;SDS011;20158;51.436;-2.742;2022-08-19T11:08:44;7.72;;;1.80;;
33862;SDS011;20158;51.436;-2.742;2022-08-19T11:11:11;7.72;;;2.47;;
33862;SDS011;20158;51.436;-2.742;2022-08-19T11:13:38;4.25;;;1.60;;
33862;SDS011;20158;51.436;-2.742;2022-08-19T11:16:07;5.15;;;1.83;;
33862;SDS011;20158;51.436;-2.742;2022-08-19T11:18:39;3.55;;;1.23;;
33862;SDS011;20158;51.436;-2.742;2022-08-19T11:21:20;6.00;;;1.67;;
33862;SDS011;20158;51.436;-2.742;2022-08-19T11:23:49;7.03;;;2.22;;
33862;SDS011;20158;51.436;-2.742;2022-08-19T11:26:18;4.32;;;1.35;;
33862;SDS011;20158;51.436;-2.742;2022-08-19T11:28:46;5.93;;;1.88;;
33862;SDS011;20158;51.436;-2.742;2022-08-19T11:31:14;3.85;;;1.63;;
33862;SDS011;20158;51.436;-2.742;2022-08-19T11:33:42;6.32;;;1.92;;
33862;SDS011;20158;51.436;-2.742;2022-08-19T11:36:09;5.63;;;1.60;;
33862;SDS011;20158;51.436;-2.742;2022-08-19T11:38:35;6.97;;;1.73;;
33862;SDS011;20158;51.436;-2.742;2022-08-19T11:41:03;5.22;;;1.45;;
33862;SDS011;20158;51.436;-2.742;2022-08-19T11:43:33;5.15;;;2.05;;
33862;SDS011;20158;51.436;-2.742;2022-08-19T11:46:03;3.50;;;1.70;;
33862;SDS011;20158;51.436;-2.742;2022-08-19T11:48:32;3.88;;;1.60;;
33862;SDS011;20158;51.436;-2.742;2022-08-19T11:50:58;4.50;;;1.60;;
33862;SDS011;20158;51.436;-2.742;2022-08-19T11:53:25;6.38;;;2.10;;
33862;SDS011;20158;51.436;-2.742;2022-08-19T11:55:52;4.00;;;1.70;;
33862;SDS011;20158;51.436;-2.742;2022-08-19T11:58:21;4.50;;;1.30;;
33862;SDS011;20158;51.436;-2.742;2022-08-19T12:00:47;4.82;;;1.90;;
33862;SDS011;20158;51.436;-2.742;2022-08-19T12:03:13;5.90;;;2.10;;
33862;SDS011;20158;51.436;-2.742;2022-08-19T12:05:42;7.60;;;2.13;;
33862;SDS011;20158;51.436;-2.742;2022-08-19T12:08:08;5.40;;;1.60;;
33862;SDS011;20158;51.436;-2.742;2022-08-19T12:10:34;5.53;;;2.08;;
33862;SDS011;20158;51.436;-2.742;2022-08-19T12:13:00;5.22;;;1.63;;
33862;SDS011;20158;51.436;-2.742;2022-08-19T12:15:27;4.47;;;1.48;;
33862;SDS011;20158;51.436;-2.742;2022-08-19T12:17:54;5.47;;;1.73;;
33862;SDS011;20158;51.436;-2.742;2022-08-19T12:20:22;5.15;;;1.65;;
33862;SDS011;20158;51.436;-2.742;2022-08-19T12:22:49;6.07;;;1.88;;
33862;SDS011;20158;51.436;-2.742;2022-08-19T12:25:16;4.70;;;1.65;;
33862;SDS011;20158;51.436;-2.742;2022-08-19T12:27:42;5.38;;;2.17;;
33862;SDS011;20158;51.436;-2.742;2022-08-19T12:30:10;3.65;;;1.15;;
33862;SDS011;20158;51.436;-2.742;2022-08-19T12:32:38;4.90;;;1.92;;
33862;SDS011;20158;51.436;-2.742;2022-08-19T12:35:06;6.43;;;1.88;;
33862;SDS011;20158;51.436;-2.742;2022-08-19T12:37:34;4.72;;;1.73;;
33862;SDS011;20158;51.436;-2.742;2022-08-19T12:40:00;4.82;;;1.40;;
33862;SDS011;20158;51.436;-2.742;2022-08-19T12:42:28;6.05;;;2.08;;
33862;SDS011;20158;51.436;-2.742;2022-08-19T12:44:55;2.63;;;1.30;;
33862;SDS011;20158;51.436;-2.742;2022-08-19T12:47:21;6.50;;;1.52;;
33862;SDS011;20158;51.436;-2.742;2022-08-19T12:49:48;3.60;;;1.50;;
33862;SDS011;20158;51.436;-2.742;2022-08-19T12:52:14;4.22;;;1.42;;
33862;SDS011;20158;51.436;-2.742;2022-08-19T12:54:41;3.70;;;1.33;;
33862;SDS011;20158;51.436;-2.742;2022-08-19T12:57:08;3.63;;;1.50;;
33862;SDS011;20158;51.436;-2.742;2022-08-19T12:59:36;3.13;;;1.58;;
33862;SDS011;20158;51.436;-2.742;2022-08-19T13:02:03;5.15;;;1.48;;
33862;SDS011;20158;51.436;-2.742;2022-08-19T13:04:31;5.05;;;2.40;;
33862;SDS011;20158;51.436;-2.742;2022-08-19T13:07:00;5.28;;;1.90;;
33862;SDS011;20158;51.436;-2.742;2022-08-19T13:09:26;3.90;;;1.60;;
33862;SDS011;20158;51.436;-2.742;2022-08-19T13:11:52;4.13;;;1.75;;
33862;SDS011;20158;51.436;-2.742;2022-08-19T13:14:18;4.18;;;1.80;;
33862;SDS011;20158;51.436;-2.742;2022-08-19T13:16:44;4.80;;;1.05;;
33862;SDS011;20158;51.436;-2.742;2022-08-19T13:19:09;3.63;;;1.45;;
33862;SDS011;20158;51.436;-2.742;2022-08-19T13:21:37;4.45;;;1.90;;
33862;SDS011;20158;51.436;-2.742;2022-08-19T13:24:03;5.13;;;1.70;;
33862;SDS011;20158;51.436;-2.742;2022-08-19T13:26:29;3.20;;;1.75;;
33862;SDS011;20158;51.436;-2.742;2022-08-19T13:28:55;3.50;;;1.50;;
33862;SDS011;20158;51.436;-2.742;2022-08-19T13:31:40;3.42;;;1.15;;
33862;SDS011;20158;51.436;-2.742;2022-08-19T13:34:27;3.33;;;1.45;;
33862;SDS011;20158;51.436;-2.742;2022-08-19T13:37:00;5.15;;;1.17;;
33862;SDS011;20158;51.436;-2.742;2022-08-19T13:39:28;4.10;;;1.48;;
33862;SDS011;20158;51.436;-2.742;2022-08-19T13:41:55;4.30;;;1.30;;
33862;SDS011;20158;51.436;-2.742;2022-08-19T13:44:21;3.35;;;1.20;;
33862;SDS011;20158;51.436;-2.742;2022-08-19T13:46:47;3.58;;;1.30;;
33862;SDS011;20158;51.436;-2.742;2022-08-19T13:49:16;4.28;;;1.40;;
33862;SDS011;20158;51.436;-2.742;2022-08-19T13:51:44;4.18;;;1.48;;
33862;SDS011;20158;51.436;-2.742;2022-08-19T13:54:10;4.68;;;1.80;;
33862;SDS011;20158;51.436;-2.742;2022-08-19T13:56:44;5.05;;;1.30;;
33862;SDS011;20158;51.436;-2.742;2022-08-19T13:59:10;2.38;;;0.95;;
33862;SDS011;20158;51.436;-2.742;2022-08-19T14:01:37;5.22;;;1.88;;
33862;SDS011;20158;51.436;-2.742;2022-08-19T14:04:04;4.95;;;1.35;;
33862;SDS011;20158;51.436;-2.742;2022-08-19T14:06:31;6.03;;;1.52;;
33862;SDS011;20158;51.436;-2.742;2022-08-19T14:08:58;3.90;;;1.80;;
33862;SDS011;20158;51.436;-2.742;2022-08-19T14:11:24;3.58;;;1.23;;
33862;SDS011;20158;51.436;-2.742;2022-08-19T14:13:51;4.15;;;1.15;;
33862;SDS011;20158;51.436;-2.742;2022-08-19T14:16:17;3.78;;;1.45;;
33862;SDS011;20158;51.436;-2.742;2022-08-19T14:18:43;3.70;;;1.80;;
33862;SDS011;20158;51.436;-2.742;2022-08-19T14:21:17;3.83;;;1.65;;
33862;SDS011;20158;51.436;-2.742;2022-08-19T14:23:45;3.42;;;1.17;;
33862;SDS011;20158;51.436;-2.742;2022-08-19T14:26:13;4.70;;;1.95;;
33862;SDS011;20158;51.436;-2.742;2022-08-19T14:28:41;2.88;;;1.10;;
33862;SDS011;20158;51.436;-2.742;2022-08-19T14:31:09;4.22;;;1.55;;
33862;SDS011;20158;51.436;-2.742;2022-08-19T14:33:35;4.82;;;1.17;;
33862;SDS011;20158;51.436;-2.742;2022-08-19T14:36:02;4.28;;;1.45;;
33862;SDS011;20158;51.436;-2.742;2022-08-19T14:38:29;4.32;;;2.05;;
33862;SDS011;20158;51.436;-2.742;2022-08-19T14:43:36;4.05;;;1.38;;
33862;SDS011;20158;51.436;-2.742;2022-08-19T14:46:03;3.38;;;1.08;;
33862;SDS011;20158;51.436;-2.742;2022-08-19T14:48:29;3.90;;;1.30;;
33862;SDS011;20158;51.436;-2.742;2022-08-19T14:50:56;3.97;;;1.23;;
33862;SDS011;20158;51.436;-2.742;2022-08-19T14:53:22;2.30;;;0.90;;
33862;SDS011;20158;51.436;-2.742;2022-08-19T14:55:48;3.63;;;1.13;;
33862;SDS011;20158;51.436;-2.742;2022-08-19T14:58:15;2.45;;;1.08;;